createdAt,value
2023-04-20T00:01:32.759Z,158628.50
2023-04-20T00:04:00.671Z,158628.50
2023-04-20T00:06:31.211Z,158620.47
2023-04-20T00:08:58.946Z,158600.53
2023-04-20T00:11:26.742Z,158585.88
2023-04-20T00:13:54.512Z,158552.59
2023-04-20T00:16:21.871Z,158545.91
2023-04-20T00:18:49.470Z,158521.91
2023-04-20T00:21:16.916Z,158505.94
2023-04-20T00:23:44.513Z,158493.94
2023-04-20T00:26:11.918Z,158474.03
2023-04-20T00:28:41.497Z,158451.34
2023-04-20T00:31:08.970Z,158459.38
2023-04-20T00:33:36.928Z,158446.06
2023-04-20T00:36:04.472Z,158448.72
2023-04-20T00:38:32.505Z,158450.03
2023-04-20T00:41:00.032Z,158450.03
2023-04-20T00:43:27.834Z,158454.03
2023-04-20T00:45:55.344Z,158456.69
2023-04-20T00:48:23.172Z,158454.03
2023-04-20T00:50:51.101Z,158459.38
2023-04-20T00:53:19.526Z,158464.66
2023-04-20T00:55:46.957Z,158476.66
2023-04-20T00:58:14.488Z,158472.66
2023-04-20T01:00:41.723Z,158484.66
2023-04-20T01:03:10.773Z,158485.97
2023-04-20T01:05:38.540Z,158500.63
2023-04-20T01:08:06.057Z,158500.63
2023-04-20T01:10:33.230Z,158512.63
2023-04-20T01:13:00.769Z,158509.97
2023-04-20T01:15:27.943Z,158512.63
2023-04-20T01:17:55.581Z,158491.31
2023-04-20T01:20:37.775Z,158532.59
2023-04-20T01:23:05.859Z,158545.91
2023-04-20T01:25:33.519Z,158549.88
2023-04-20T01:28:02.146Z,158552.59
2023-04-20T01:30:29.710Z,158555.22
2023-04-20T01:32:57.333Z,158555.22
2023-04-20T01:35:24.682Z,158564.59
2023-04-20T01:37:52.247Z,158571.19
2023-04-20T01:40:19.618Z,158571.19
2023-04-20T01:42:47.377Z,158575.22
2023-04-20T01:45:15.354Z,158580.56
2023-04-20T01:47:42.844Z,158580.56
2023-04-20T01:50:10.338Z,158577.84
2023-04-20T01:52:37.875Z,158604.50
2023-04-20T01:55:05.502Z,158601.84
2023-04-20T01:57:33.087Z,158601.84
2023-04-20T02:00:00.349Z,158593.88
2023-04-20T02:02:27.916Z,158600.53
2023-04-20T02:04:55.499Z,158605.81
2023-04-20T02:07:23.272Z,158609.84
2023-04-20T02:09:50.490Z,158607.19
2023-04-20T02:12:17.742Z,158600.53
2023-04-20T02:14:45.142Z,158617.81
2023-04-20T02:17:12.881Z,158605.81
2023-04-20T02:19:40.613Z,158603.19
2023-04-20T02:22:08.341Z,158613.84
2023-04-20T02:24:35.862Z,158608.53
2023-04-20T02:27:03.894Z,158613.84
2023-04-20T02:29:32.418Z,158608.53
2023-04-20T02:32:00.411Z,158599.16
2023-04-20T02:34:27.682Z,158597.84
2023-04-20T02:36:57.775Z,158593.88
2023-04-20T02:39:25.058Z,158597.84
2023-04-20T02:41:54.987Z,158576.53
2023-04-20T02:44:22.491Z,158579.22
2023-04-20T02:46:50.875Z,158592.50
2023-04-20T02:49:18.951Z,158584.50
2023-04-20T02:51:47.222Z,158596.50
2023-04-20T02:54:14.443Z,158588.53
2023-04-20T02:56:42.603Z,158589.84
2023-04-20T02:59:11.073Z,158579.22
2023-04-20T03:02:05.618Z,158579.22
2023-04-20T03:04:33.040Z,158567.22
2023-04-20T03:07:08.050Z,158545.91
2023-04-20T03:09:37.355Z,158555.22
2023-04-20T03:12:22.589Z,158537.94
2023-04-20T03:14:55.682Z,158525.94
2023-04-20T03:17:32.510Z,158511.28
2023-04-20T03:20:00.068Z,158511.28
2023-04-20T03:22:27.734Z,158496.66
2023-04-20T03:24:58.669Z,158495.31
2023-04-20T03:27:46.593Z,158492.63
2023-04-20T03:30:15.115Z,158479.31
2023-04-20T03:32:45.303Z,158456.69
2023-04-20T03:35:12.923Z,158456.69
2023-04-20T03:37:41.025Z,158456.69
2023-04-20T03:40:09.566Z,158432.75
2023-04-20T03:42:40.143Z,158418.09
2023-04-20T03:45:07.871Z,158412.75
2023-04-20T03:47:35.555Z,158414.09
2023-04-20T03:50:03.012Z,158414.09
2023-04-20T03:52:30.488Z,158419.44
2023-04-20T03:55:00.437Z,158415.41
2023-04-20T03:57:28.880Z,158420.75
2023-04-20T03:59:56.300Z,158414.09
2023-04-20T04:02:26.802Z,158426.09
2023-04-20T04:04:55.828Z,158428.72
2023-04-20T04:07:23.670Z,158434.06
2023-04-20T04:09:51.311Z,158428.72
2023-04-20T04:12:18.823Z,158432.75
2023-04-20T04:14:48.873Z,158439.41
2023-04-20T04:17:18.959Z,158427.41
2023-04-20T04:19:46.349Z,158430.03
2023-04-20T04:22:14.385Z,158422.06
2023-04-20T04:24:55.085Z,158443.38
2023-04-20T04:27:23.623Z,158455.38
2023-04-20T04:29:57.021Z,158472.66
2023-04-20T04:34:56.532Z,158507.28
2023-04-20T04:37:27.344Z,158525.94
2023-04-20T04:39:58.393Z,158544.59
2023-04-20T04:42:35.140Z,158537.94
2023-04-20T04:45:05.369Z,158565.91
2023-04-20T04:47:36.044Z,158581.88
2023-04-20T04:50:05.003Z,158589.84
2023-04-20T04:52:35.686Z,158611.16
2023-04-20T04:55:04.065Z,158637.81
2023-04-20T04:57:31.678Z,158645.81
2023-04-20T04:59:58.758Z,158664.47
2023-04-20T05:02:26.574Z,158708.41
2023-04-20T05:04:54.144Z,158739.03
2023-04-20T05:07:21.859Z,158755.06
2023-04-20T05:09:49.146Z,158800.41
2023-04-20T05:12:16.871Z,158817.75
2023-04-20T05:14:44.043Z,158808.41
2023-04-20T05:17:11.542Z,158832.41
2023-04-20T05:19:38.770Z,158876.41
2023-04-20T05:22:06.339Z,158887.03
2023-04-20T05:24:33.729Z,158925.72
2023-04-20T05:27:01.806Z,158955.03
2023-04-20T05:29:29.038Z,158979.00
2023-04-20T05:31:56.762Z,159027.03
2023-04-20T05:34:24.105Z,159053.69
2023-04-20T05:36:52.907Z,159096.38
2023-04-20T05:39:20.829Z,159104.38
2023-04-20T05:41:48.730Z,159113.75
2023-04-20T05:44:16.193Z,159160.41
2023-04-20T05:46:43.790Z,159176.41
2023-04-20T05:49:11.485Z,159191.13
2023-04-20T05:51:39.146Z,159253.78
2023-04-20T05:54:06.419Z,159256.47
2023-04-20T05:56:34.040Z,159307.22
2023-04-20T05:59:01.685Z,159301.88
2023-04-20T06:01:29.306Z,159304.56
2023-04-20T06:03:56.859Z,159317.94
2023-04-20T06:06:25.870Z,159341.94
2023-04-20T06:08:57.561Z,159357.94
2023-04-20T06:11:27.074Z,159356.59
2023-04-20T06:13:54.500Z,159340.59
2023-04-20T06:16:22.190Z,159329.91
2023-04-20T06:18:49.904Z,159343.25
2023-04-20T06:21:17.758Z,159351.25
2023-04-20T06:23:45.498Z,159384.63
2023-04-20T06:26:13.338Z,159422.00
2023-04-20T06:28:40.831Z,159446.03
2023-04-20T06:31:08.512Z,159483.41
2023-04-20T06:33:35.932Z,159536.84
2023-04-20T06:36:07.212Z,159592.94
2023-04-20T06:38:34.702Z,159603.59
2023-04-20T06:41:03.080Z,159647.66
2023-04-20T06:43:30.897Z,159666.38
2023-04-20T06:45:58.649Z,159693.16
2023-04-20T06:48:32.247Z,159682.38
2023-04-20T06:51:01.537Z,159747.94
2023-04-20T06:53:28.936Z,159763.94
2023-04-20T06:55:57.077Z,159794.66
2023-04-20T06:58:24.425Z,159840.13
2023-04-20T07:00:52.531Z,159881.56
2023-04-20T07:03:20.184Z,159949.69
2023-04-20T07:05:47.940Z,160029.94
2023-04-20T07:08:16.230Z,160090.13
2023-04-20T07:10:43.901Z,160107.53
2023-04-20T07:13:11.393Z,160143.63
2023-04-20T07:15:38.988Z,160199.81
2023-04-20T07:18:06.714Z,160256.00
2023-04-20T07:20:34.451Z,160281.38
2023-04-20T07:23:01.697Z,160352.28
2023-04-20T07:25:31.672Z,160415.22
2023-04-20T07:27:59.193Z,160456.72
2023-04-20T07:30:26.778Z,160482.16
2023-04-20T07:32:54.079Z,160538.41
2023-04-20T07:35:22.017Z,160551.72
2023-04-20T07:37:49.361Z,160549.06
2023-04-20T07:40:17.271Z,160574.53
2023-04-20T07:42:44.584Z,160612.00
2023-04-20T07:45:13.069Z,160680.31
2023-04-20T07:47:40.916Z,160681.63
2023-04-20T07:50:08.953Z,160716.50
2023-04-20T07:52:36.186Z,160798.19
2023-04-20T07:55:04.175Z,160862.47
2023-04-20T07:57:31.556Z,160890.63
2023-04-20T07:59:59.196Z,160877.22
2023-04-20T08:02:26.551Z,160940.19
2023-04-20T08:04:55.300Z,160968.34
2023-04-20T08:07:23.749Z,160890.63
2023-04-20T08:09:51.559Z,160885.28
2023-04-20T08:12:18.954Z,160894.66
2023-04-20T08:14:46.917Z,160855.78
2023-04-20T08:17:14.255Z,160901.34
2023-04-20T08:19:43.776Z,160858.47
2023-04-20T08:22:13.201Z,160863.88
2023-04-20T08:24:41.116Z,160909.38
2023-04-20T08:27:09.329Z,160908.06
2023-04-20T08:29:38.480Z,160877.22
2023-04-20T08:32:09.163Z,160897.31
2023-04-20T08:34:37.255Z,160963.00
2023-04-20T08:37:04.749Z,160958.97
2023-04-20T08:39:32.402Z,161024.66
2023-04-20T08:41:59.799Z,161048.81
2023-04-20T08:44:27.407Z,161043.44
2023-04-20T08:46:54.960Z,161044.78
2023-04-20T08:49:23.084Z,161080.97
2023-04-20T08:51:51.708Z,161119.84
2023-04-20T08:54:21.379Z,161169.47
2023-04-20T08:56:49.113Z,161232.47
2023-04-20T08:59:17.289Z,161153.34
2023-04-20T09:01:45.281Z,161114.47
2023-04-20T09:04:21.804Z,161079.63
2023-04-20T09:06:51.199Z,161083.66
2023-04-20T09:09:20.486Z,161058.19
2023-04-20T09:12:04.370Z,161131.88
2023-04-20T09:14:43.098Z,161126.56
2023-04-20T09:17:14.605Z,161125.22
2023-04-20T09:19:44.893Z,161201.59
2023-04-20T09:22:12.567Z,161220.41
2023-04-20T09:24:41.568Z,161263.34
2023-04-20T09:27:19.519Z,161263.34
2023-04-20T09:30:01.682Z,161221.72
2023-04-20T09:32:29.334Z,161225.78
2023-04-20T09:34:57.502Z,161217.72
2023-04-20T09:37:25.821Z,161264.69
2023-04-20T09:39:56.180Z,161206.97
2023-04-20T09:42:25.055Z,161185.53
2023-04-20T09:44:53.602Z,161145.28
2023-04-20T09:47:22.856Z,161142.63
2023-04-20T09:49:50.694Z,161164.09
2023-04-20T09:52:21.598Z,161148.00
2023-04-20T09:54:50.939Z,161172.13
2023-04-20T09:57:19.499Z,161200.28
2023-04-20T09:59:47.371Z,161212.34
2023-04-20T10:02:15.123Z,161237.84
2023-04-20T10:05:02.295Z,161197.63
2023-04-20T10:07:31.972Z,161141.31
2023-04-20T10:10:26.343Z,161126.56
2023-04-20T10:12:55.472Z,161054.13
2023-04-20T10:15:24.472Z,161072.94
2023-04-20T10:17:53.694Z,161143.97
2023-04-20T10:20:24.333Z,161193.56
2023-04-20T10:22:53.537Z,161201.59
2023-04-20T10:25:24.963Z,161198.94
2023-04-20T10:28:00.385Z,161220.41
2023-04-20T10:30:29.288Z,161263.34
2023-04-20T10:33:13.060Z,161312.97
2023-04-20T10:35:51.376Z,161339.81
2023-04-20T10:38:32.654Z,161343.78
2023-04-20T10:41:10.594Z,161343.78
2023-04-20T10:43:43.775Z,161362.59
2023-04-20T10:46:18.736Z,161334.44
2023-04-20T10:49:01.771Z,161272.72
2023-04-20T10:51:29.337Z,161274.09
2023-04-20T10:54:06.627Z,161296.88
2023-04-20T10:56:39.518Z,161362.59
2023-04-20T10:59:08.712Z,161350.50
2023-04-20T11:01:36.552Z,161406.84
2023-04-20T11:04:04.698Z,161388.09
2023-04-20T11:06:32.838Z,161358.56
2023-04-20T11:09:00.475Z,161353.22
2023-04-20T11:11:28.522Z,161359.94
2023-04-20T11:14:10.086Z,161331.75
2023-04-20T11:16:49.560Z,161323.72
2023-04-20T11:19:24.064Z,161330.38
2023-04-20T11:21:52.140Z,161367.97
2023-04-20T11:24:20.783Z,161437.72
2023-04-20T11:26:54.414Z,161477.94
2023-04-20T11:29:32.040Z,161554.47
2023-04-20T11:32:05.056Z,161600.13
2023-04-20T11:34:33.437Z,161625.59
2023-04-20T11:37:06.692Z,161598.75
2023-04-20T11:39:34.895Z,161585.31
2023-04-20T11:42:02.968Z,161571.94
2023-04-20T11:44:30.291Z,161588.03
2023-04-20T11:46:59.991Z,161555.81
2023-04-20T11:49:28.994Z,161554.47
2023-04-20T11:51:56.764Z,161534.34
2023-04-20T11:54:24.547Z,161561.19
2023-04-20T11:56:52.567Z,161610.84
2023-04-20T11:59:20.973Z,161641.69
2023-04-20T12:01:49.177Z,161604.13
2023-04-20T12:04:17.006Z,161553.16
2023-04-20T12:06:45.231Z,161553.16
2023-04-20T12:09:13.671Z,161597.41
2023-04-20T12:11:41.488Z,161630.97
2023-04-20T12:14:08.839Z,161634.97
2023-04-20T12:16:36.619Z,161621.59
2023-04-20T12:19:03.918Z,161656.50
2023-04-20T12:21:32.758Z,161694.06
2023-04-20T12:24:00.350Z,161726.25
2023-04-20T12:26:37.349Z,161724.91
2023-04-20T12:29:05.861Z,161612.19
2023-04-20T12:31:33.646Z,161543.78
2023-04-20T12:34:01.217Z,161506.16
2023-04-20T12:36:29.123Z,161452.47
2023-04-20T12:38:56.750Z,161429.69
2023-04-20T12:41:24.898Z,161418.94
2023-04-20T12:43:52.558Z,161393.44
2023-04-20T12:46:20.560Z,161347.84
2023-04-20T12:48:48.179Z,161314.31
2023-04-20T12:51:15.966Z,161326.38
2023-04-20T12:53:43.363Z,161319.69
2023-04-20T12:56:11.621Z,161345.19
2023-04-20T12:58:39.181Z,161421.59
2023-04-20T13:01:06.923Z,161487.41
2023-04-20T13:03:34.573Z,161523.63
2023-04-20T13:06:02.430Z,161449.78
2023-04-20T13:08:29.983Z,161406.84
2023-04-20T13:10:57.640Z,161388.09
2023-04-20T13:13:24.900Z,161346.50
2023-04-20T13:15:54.602Z,161378.66
2023-04-20T13:18:24.511Z,161388.09
2023-04-20T13:20:52.256Z,161362.59
2023-04-20T13:23:19.714Z,161405.50
2023-04-20T13:25:47.392Z,161421.59
2023-04-20T13:28:14.991Z,161384.06
2023-04-20T13:30:42.787Z,161384.06
2023-04-20T13:33:10.710Z,161396.13
2023-04-20T13:35:38.784Z,161394.81
2023-04-20T13:38:06.443Z,161397.47
2023-04-20T13:40:34.398Z,161405.50
2023-04-20T13:43:01.636Z,161414.88
2023-04-20T13:45:29.956Z,161457.81
2023-04-20T13:47:57.486Z,161445.78
2023-04-20T13:50:25.748Z,161455.16
2023-04-20T13:52:53.061Z,161490.09
2023-04-20T13:55:20.922Z,161527.63
2023-04-20T13:57:48.474Z,161463.19
2023-04-20T14:00:16.865Z,161408.19
2023-04-20T14:02:44.345Z,161414.88
2023-04-20T14:05:12.080Z,161435.00
2023-04-20T14:07:39.826Z,161464.53
2023-04-20T14:10:08.050Z,161498.13
2023-04-20T14:12:35.719Z,161545.09
2023-04-20T14:15:04.467Z,161537.06
2023-04-20T14:17:31.937Z,161559.88
2023-04-20T14:19:59.692Z,161628.31
2023-04-20T14:22:26.996Z,161637.69
2023-04-20T14:24:54.666Z,161597.41
2023-04-20T14:27:21.953Z,161593.41
2023-04-20T14:29:51.147Z,161519.59
2023-04-20T14:32:19.795Z,161441.72
2023-04-20T14:34:47.401Z,161412.22
2023-04-20T14:37:14.695Z,161382.72
2023-04-20T14:39:42.268Z,161377.34
2023-04-20T14:42:09.552Z,161377.34
2023-04-20T14:44:37.263Z,161422.97
2023-04-20T14:47:04.636Z,161437.72
2023-04-20T14:49:32.522Z,161451.16
2023-04-20T14:51:59.904Z,161459.19
2023-04-20T14:54:27.742Z,161479.31
2023-04-20T14:56:55.175Z,161483.31
2023-04-20T14:59:24.747Z,161529.03
2023-04-20T15:02:01.851Z,161511.53
2023-04-20T15:04:31.331Z,161465.91
2023-04-20T15:06:58.822Z,161409.56
2023-04-20T15:09:26.402Z,161394.81
2023-04-20T15:11:53.891Z,161349.19
2023-04-20T15:14:21.725Z,161327.72
2023-04-20T15:16:52.040Z,161310.31
2023-04-20T15:19:20.617Z,161276.78
2023-04-20T15:21:47.923Z,161282.16
2023-04-20T15:24:15.766Z,161299.56
2023-04-20T15:26:43.287Z,161322.34
2023-04-20T15:29:11.104Z,161331.75
2023-04-20T15:31:39.213Z,161339.81
2023-04-20T15:34:07.079Z,161322.34
2023-04-20T15:36:34.318Z,161331.75
2023-04-20T15:39:02.117Z,161346.50
2023-04-20T15:41:29.370Z,161349.19
2023-04-20T15:43:57.082Z,161363.94
2023-04-20T15:46:26.526Z,161327.72
2023-04-20T15:48:54.263Z,161279.44
2023-04-20T15:51:21.873Z,161225.78
2023-04-20T15:53:50.876Z,161217.72
2023-04-20T15:56:22.742Z,161185.53
2023-04-20T15:58:51.770Z,161156.03
2023-04-20T16:01:20.024Z,161152.00
2023-04-20T16:03:48.490Z,161148.00
2023-04-20T16:06:16.082Z,161138.59
2023-04-20T16:08:44.097Z,161139.97
2023-04-20T16:11:11.395Z,161153.34
2023-04-20T16:13:38.903Z,161152.00
2023-04-20T16:16:06.430Z,161219.06
2023-04-20T16:18:33.984Z,161229.75
2023-04-20T16:21:01.441Z,161260.69
2023-04-20T16:23:29.137Z,161286.13
2023-04-20T16:25:56.385Z,161295.56
2023-04-20T16:28:24.001Z,161263.34
2023-04-20T16:30:51.502Z,161235.13
2023-04-20T16:33:19.731Z,161227.09
2023-04-20T16:35:47.164Z,161228.44
2023-04-20T16:38:14.810Z,161188.19
2023-04-20T16:40:42.913Z,161212.34
2023-04-20T16:43:10.949Z,161161.41
2023-04-20T16:45:39.317Z,161150.66
2023-04-20T16:48:08.415Z,161131.88
2023-04-20T16:50:38.542Z,161113.16
2023-04-20T16:53:08.731Z,161074.25
2023-04-20T16:55:36.119Z,161068.94
2023-04-20T16:58:03.894Z,161036.75
2023-04-20T17:00:32.335Z,161005.94
2023-04-20T17:03:03.610Z,160996.53
2023-04-20T17:05:31.102Z,160961.63
2023-04-20T17:07:59.160Z,160963.00
2023-04-20T17:10:26.538Z,160945.56
2023-04-20T17:12:54.169Z,160913.44
2023-04-20T17:15:21.645Z,160893.31
2023-04-20T17:17:49.660Z,160877.22
2023-04-20T17:20:17.085Z,160853.13
2023-04-20T17:22:46.785Z,160846.41
2023-04-20T17:25:14.373Z,160820.94
2023-04-20T17:27:42.409Z,160810.25
2023-04-20T17:30:10.463Z,160791.47
2023-04-20T17:32:38.336Z,160778.09
2023-04-20T17:35:06.398Z,160745.97
2023-04-20T17:37:36.584Z,160731.25
2023-04-20T17:40:06.442Z,160693.75
2023-04-20T17:42:34.125Z,160649.47
2023-04-20T17:45:01.481Z,160670.91
2023-04-20T17:47:31.358Z,160648.16
2023-04-20T17:50:00.110Z,160614.66
2023-04-20T17:52:27.937Z,160591.91
2023-04-20T17:54:55.572Z,160557.09
2023-04-20T17:57:23.305Z,160520.97
2023-04-20T17:59:50.976Z,160491.53
2023-04-20T18:02:19.044Z,160456.72
2023-04-20T18:04:47.010Z,160420.59
2023-04-20T18:07:17.042Z,160385.78
2023-04-20T18:09:44.937Z,160353.59
2023-04-20T18:12:13.146Z,160334.91
2023-04-20T18:14:44.287Z,160298.78
2023-04-20T18:17:12.034Z,160265.34
2023-04-20T18:19:41.112Z,160239.91
2023-04-20T18:22:09.291Z,160206.50
2023-04-20T18:24:36.773Z,160179.72
2023-04-20T18:27:04.669Z,160138.28
2023-04-20T18:29:32.021Z,160111.50
2023-04-20T18:32:01.381Z,160080.78
2023-04-20T18:34:30.178Z,160056.69
2023-04-20T18:36:58.883Z,160025.88
2023-04-20T18:39:26.530Z,160011.19
2023-04-20T18:41:54.169Z,159984.44
2023-04-20T18:44:22.056Z,159957.69
2023-04-20T18:46:50.142Z,159937.63
2023-04-20T18:49:17.357Z,159908.25
2023-04-20T18:51:44.902Z,159882.88
2023-04-20T18:54:12.112Z,159888.19
2023-04-20T18:56:40.043Z,159866.81
2023-04-20T18:59:08.777Z,159841.44
2023-04-20T19:01:40.839Z,159805.38
2023-04-20T19:04:08.922Z,159797.34
2023-04-20T19:06:36.796Z,159743.91
2023-04-20T19:09:05.883Z,159779.97
2023-04-20T19:11:34.971Z,159781.28
2023-04-20T19:14:02.256Z,159774.59
2023-04-20T19:16:31.573Z,159762.63
2023-04-20T19:18:59.741Z,159770.63
2023-04-20T19:21:27.387Z,159765.28
2023-04-20T19:23:56.788Z,159787.97
2023-04-20T19:26:25.193Z,159779.97
2023-04-20T19:28:52.782Z,159777.31
2023-04-20T19:31:20.876Z,159782.63
2023-04-20T19:33:48.364Z,159747.94
2023-04-20T19:36:16.248Z,159762.63
2023-04-20T19:38:43.738Z,159726.56
2023-04-20T19:41:11.462Z,159747.94
2023-04-20T19:43:39.047Z,159742.56
2023-04-20T19:46:09.743Z,159719.88
2023-04-20T19:48:37.328Z,159731.84
2023-04-20T19:51:06.540Z,159719.88
2023-04-20T19:53:34.165Z,159705.13
2023-04-20T19:56:03.551Z,159682.38
2023-04-20T19:58:32.511Z,159659.69
2023-04-20T20:01:01.377Z,159651.69
2023-04-20T20:03:28.877Z,159643.66
2023-04-20T20:05:56.885Z,159630.31
2023-04-20T20:08:24.309Z,159620.97
2023-04-20T20:10:52.166Z,159594.25
2023-04-20T20:13:19.825Z,159608.94
2023-04-20T20:15:48.407Z,159595.59
2023-04-20T20:18:15.744Z,159582.22
2023-04-20T20:20:43.494Z,159590.22
2023-04-20T20:23:10.798Z,159595.59
2023-04-20T20:25:39.540Z,159595.59
2023-04-20T20:28:06.749Z,159598.22
2023-04-20T20:30:34.476Z,159592.94
2023-04-20T20:33:01.826Z,159594.25
2023-04-20T20:35:33.199Z,159582.22
2023-04-20T20:38:00.606Z,159579.56
2023-04-20T20:40:28.371Z,159579.56
2023-04-20T20:42:57.545Z,159578.19
2023-04-20T20:45:25.319Z,159570.19
2023-04-20T20:47:52.684Z,159571.56
2023-04-20T20:50:20.434Z,159566.22
2023-04-20T20:52:47.809Z,159552.84
2023-04-20T20:55:15.810Z,159542.16
2023-04-20T20:57:43.075Z,159523.50
2023-04-20T21:00:12.226Z,159518.13
2023-04-20T21:02:39.957Z,159519.47
2023-04-20T21:05:08.015Z,159516.81
2023-04-20T21:07:35.537Z,159508.81
2023-04-20T21:10:03.890Z,159526.13
2023-04-20T21:12:31.177Z,159523.50
2023-04-20T21:14:59.085Z,159516.81
2023-04-20T21:17:26.977Z,159516.81
2023-04-20T21:19:54.724Z,159510.13
2023-04-20T21:22:22.769Z,159507.44
2023-04-20T21:24:50.622Z,159474.09
2023-04-20T21:27:18.148Z,159458.03
2023-04-20T21:29:45.907Z,159454.06
2023-04-20T21:32:13.610Z,159432.69
2023-04-20T21:34:41.281Z,159419.34
2023-04-20T21:37:09.284Z,159423.38
2023-04-20T21:39:37.021Z,159400.63
2023-04-20T21:42:04.690Z,159381.97
2023-04-20T21:44:32.293Z,159373.97
2023-04-20T21:47:02.618Z,159360.63
2023-04-20T21:49:30.536Z,159355.28
2023-04-20T21:51:57.945Z,159331.22
2023-04-20T21:54:25.706Z,159316.56
2023-04-20T21:56:53.040Z,159321.91
2023-04-20T21:59:20.885Z,159313.91
2023-04-20T22:01:48.343Z,159317.94
2023-04-20T22:04:17.637Z,159300.53
2023-04-20T22:06:44.938Z,159309.88
2023-04-20T22:09:13.592Z,159312.56
2023-04-20T22:11:40.922Z,159315.22
2023-04-20T22:14:08.573Z,159304.56
2023-04-20T22:16:35.727Z,159311.25
2023-04-20T22:19:04.493Z,159285.88
2023-04-20T22:21:32.403Z,159305.91
2023-04-20T22:24:00.162Z,159303.19
2023-04-20T22:26:27.555Z,159309.88
2023-04-20T22:28:55.296Z,159293.88
2023-04-20T22:31:22.560Z,159277.88
2023-04-20T22:33:50.108Z,159259.13
2023-04-20T22:36:18.827Z,159243.13
2023-04-20T22:38:46.411Z,159237.78
2023-04-20T22:41:15.897Z,159225.75
2023-04-20T22:43:44.982Z,159223.09
2023-04-20T22:46:12.534Z,159208.44
2023-04-20T22:48:42.110Z,159199.13
2023-04-20T22:51:09.369Z,159193.75
2023-04-20T22:53:37.040Z,159179.09
2023-04-20T22:56:06.123Z,159169.78
2023-04-20T22:58:33.886Z,159144.41
2023-04-20T23:01:01.361Z,159143.09
2023-04-20T23:03:29.100Z,159133.72
2023-04-20T23:05:57.779Z,159123.06
2023-04-20T23:08:25.923Z,159108.41
2023-04-20T23:10:56.103Z,159088.38
2023-04-20T23:13:26.572Z,159105.69
2023-04-20T23:15:54.218Z,159091.03
2023-04-20T23:18:21.827Z,159080.38
2023-04-20T23:20:49.247Z,159064.41
2023-04-20T23:23:17.082Z,159048.34
2023-04-20T23:25:44.449Z,159024.38
2023-04-20T23:28:12.110Z,159035.03
2023-04-20T23:30:39.437Z,159027.03
2023-04-20T23:33:07.097Z,159017.72
2023-04-20T23:35:34.592Z,159004.38
2023-04-20T23:38:03.628Z,158977.69
2023-04-20T23:40:31.700Z,158971.03
2023-04-20T23:42:59.357Z,158959.06
2023-04-20T23:45:26.774Z,158955.03
2023-04-20T23:47:54.502Z,158944.41
2023-04-20T23:50:21.909Z,158908.34
2023-04-20T23:52:49.944Z,158913.69
2023-04-20T23:55:17.356Z,158885.72
2023-04-20T23:57:46.923Z,158881.72
